Temp: 14.0°C   Baro: 995.3mb
  Wind: 8.1mph   Dir: SW (221°)
  Rain: 0.4mm (0.0mm/hr)
  Solar: 102W/m2  Hum: 89%
 
Bath Spa Weather Station Historical Data
Daily Summary for August 03, 2020 Units:  Metric    English   Both
Daily Weekly Monthly Yearly Custom
  High: Low: Average:
Temperature: 19.6 °C 9.7 °C 15.1 °C
Dew Point: 12.2 °C 7.8 °C 10.2 °C
Humidity: 91% 55.6% 74%
Wind Speed: 13.8km/h 0km/h 4.3km/h
Wind Gust: 24.1km/h - -
Wind- - WNW
Pressure: 1018.2 hPa 1015.8 hPa -
Precipitation: 0 mm    
Historical Graphs
 
 
Tabular Data for August 03, 2020
Time Temperature Dew Point Pressure Wind Wind Speed Wind Gust Humidity Rainfall Rate (Hourly) solar
00:04 13.1 °C 10.6 °C 1016.1 hPa Calm     85% 0 mm 0 W/m2
00:09 13.1 °C 10.6 °C 1016.1 hPa Calm     85% 0 mm 0 W/m2
00:14 12.9 °C 10.4 °C 1016.1 hPa Calm     85% 0 mm 0 W/m2
00:19 12.9 °C 10.4 °C 1016.1 hPa Calm     85.2% 0 mm 0 W/m2
00:24 12.8 °C 10.5 °C 1016.1 hPa Calm     86% 0 mm 0 W/m2
00:29 12.8 °C 10.5 °C 1016.1 hPa Calm     86% 0 mm 0 W/m2
00:34 12.7 °C 10.4 °C 1016.1 hPa Calm     86% 0 mm 0 W/m2
00:39 12.7 °C 10.4 °C 1016.1 hPa Calm     86.3% 0 mm 0 W/m2
00:44 12.7 °C 10.6 °C 1016.1 hPa NW 2.3 km/h 6.4 km/h 86.8% 0 mm 0 W/m2
00:49 12.7 °C 10.6 °C 1016.1 hPa NW 2.6 km/h 6.4 km/h 87% 0 mm 0 W/m2
00:54 12.7 °C 10.6 °C 1016.1 hPa NW 1.4 km/h 6.4 km/h 87% 0 mm 0 W/m2
00:59 12.7 °C 10.6 °C 1016.1 hPa NW 1.9 km/h 4.8 km/h 87% 0 mm 0 W/m2
01:04 12.7 °C 10.6 °C 1016.5 hPa Calm   1.6 km/h 87% 0 mm 0 W/m2
01:09 12.6 °C 10.5 °C 1016.5 hPa NW 0.6 km/h 4.8 km/h 87% 0 mm 0 W/m2
01:14 12.6 °C 10.5 °C 1016.5 hPa NW 0.3 km/h 4.8 km/h 87% 0 mm 0 W/m2
01:19 12.6 °C 10.5 °C 1016.5 hPa SSW 1.1 km/h 6.4 km/h 87% 0 mm 0 W/m2
01:24 12.7 °C 10.6 °C 1016.5 hPa South 2.6 km/h 8 km/h 87% 0 mm 0 W/m2
01:29 12.7 °C 10.6 °C 1016.5 hPa SSW 1.3 km/h 6.4 km/h 87% 0 mm 0 W/m2
01:34 12.6 °C 10.4 °C 1016.5 hPa SW 1.3 km/h 6.4 km/h 86.6% 0 mm 0 W/m2
01:39 12.6 °C 10.3 °C 1016.5 hPa SW 2.3 km/h 4.8 km/h 86% 0 mm 0 W/m2
01:44 12.6 °C 10.3 °C 1016.5 hPa SW 0.3 km/h 4.8 km/h 86% 0 mm 0 W/m2
01:49 12.7 °C 10.2 °C 1016.5 hPa SW 2.7 km/h 6.4 km/h 85.2% 0 mm 0 W/m2
01:54 12.7 °C 10.2 °C 1016.1 hPa SW 0.8 km/h 4.8 km/h 84.8% 0 mm 0 W/m2
01:59 12.6 °C 10 °C 1016.1 hPa SW 0.3 km/h 6.4 km/h 84% 0 mm 0 W/m2
02:03 12.6 °C 10 °C 1016.1 hPa Calm   1.6 km/h 84% 0 mm 0 W/m2
02:09 12.6 °C 9.9 °C 1016.1 hPa SW 0.3 km/h 6.4 km/h 84% 0 mm 0 W/m2
02:14 12.5 °C 9.9 °C 1016.1 hPa SW 1 km/h 4.8 km/h 84% 0 mm 0 W/m2
02:19 12.4 °C 9.7 °C 1016.1 hPa SW 1 km/h 4.8 km/h 83.8% 0 mm 0 W/m2
02:24 12.4 °C 9.8 °C 1016.1 hPa SW 1.3 km/h 3.2 km/h 84% 0 mm 0 W/m2
02:29 12.3 °C 9.7 °C 1016.1 hPa SW 0.3 km/h 4.8 km/h 84% 0 mm 0 W/m2
02:34 12.3 °C 9.7 °C 1016.1 hPa Calm     84% 0 mm 0 W/m2
02:38 12.2 °C 9.6 °C 1016.1 hPa Calm     84% 0 mm 0 W/m2
02:44 12.2 °C 9.6 °C 1016.1 hPa Calm   1.6 km/h 84% 0 mm 0 W/m2
02:49 12.1 °C 9.5 °C 1016.1 hPa Calm     84% 0 mm 0 W/m2
02:54 12 °C 9.4 °C 1016.1 hPa Calm     84% 0 mm 0 W/m2
02:59 11.9 °C 9.4 °C 1016.1 hPa Calm     84.4% 0 mm 0 W/m2
03:04 11.9 °C 9.5 °C 1016.1 hPa Calm     85% 0 mm 0 W/m2
03:09 11.9 °C 9.5 °C 1016.1 hPa Calm     85% 0 mm 0 W/m2
03:13 11.8 °C 9.4 °C 1016.1 hPa Calm     85% 0 mm 0 W/m2
03:19 11.8 °C 9.4 °C 1016.1 hPa Calm     85% 0 mm 0 W/m2
03:24 11.7 °C 9.3 °C 1016.1 hPa Calm     85% 0 mm 0 W/m2
03:29 11.6 °C 9.2 °C 1015.8 hPa Calm     85% 0 mm 0 W/m2
03:34 11.6 °C 9.2 °C 1016.1 hPa Calm     85.8% 0 mm 0 W/m2
03:39 11.5 °C 9.2 °C 1016.1 hPa Calm     86% 0 mm 0 W/m2
03:44 11.4 °C 9.1 °C 1016.1 hPa Calm     86% 0 mm 0 W/m2
03:49 11.3 °C 9 °C 1016.1 hPa Calm     86% 0 mm 0 W/m2
03:54 11.2 °C 8.9 °C 1016.1 hPa Calm     86% 0 mm 0 W/m2
03:59 11.1 °C 9 °C 1016.1 hPa Calm   1.6 km/h 87% 0 mm 0 W/m2
04:04 11 °C 8.9 °C 1016.1 hPa Calm     87% 0 mm 0 W/m2
04:09 10.9 °C 8.8 °C 1015.8 hPa Calm     87% 0 mm 0 W/m2
04:14 10.8 °C 8.7 °C 1016.1 hPa Calm     87% 0 mm 0 W/m2
04:19 10.8 °C 8.8 °C 1016.1 hPa Calm     87.4% 0 mm 0 W/m2
04:24 10.8 °C 8.9 °C 1016.1 hPa Calm     88% 0 mm 0 W/m2
04:29 10.7 °C 8.8 °C 1016.1 hPa Calm     88% 0 mm 0 W/m2
04:34 10.8 °C 8.8 °C 1016.1 hPa Calm     88% 0 mm 0 W/m2
04:39 10.8 °C 8.9 °C 1016.1 hPa Calm     88% 0 mm 0 W/m2
04:44 10.8 °C 8.9 °C 1016.1 hPa Calm     88% 0 mm 0 W/m2
04:49 10.8 °C 8.8 °C 1016.1 hPa Calm     88% 0 mm 0 W/m2
04:54 10.6 °C 8.7 °C 1016.1 hPa Calm     88% 0 mm 0 W/m2
04:59 10.5 °C 8.6 °C 1016.1 hPa Calm     88% 0 mm 0 W/m2
05:04 10.4 °C 8.5 °C 1016.1 hPa Calm     88% 0 mm 0 W/m2
05:09 10.3 °C 8.4 °C 1016.1 hPa Calm     88% 0 mm 0 W/m2
05:14 10.2 °C 8.4 °C 1016.1 hPa Calm     88.4% 0 mm 0 W/m2
05:19 10.2 °C 8.5 °C 1016.1 hPa Calm     89% 0 mm 0 W/m2
05:24 10.2 °C 8.5 °C 1016.1 hPa Calm     89% 0 mm 0 W/m2
05:29 10.2 °C 8.4 °C 1016.1 hPa Calm     89% 0 mm 0 W/m2
05:34 10.1 °C 8.3 °C 1016.1 hPa Calm     89% 0 mm 0 W/m2
05:39 9.9 °C 8.2 °C 1016.1 hPa Calm     89% 0 mm 0 W/m2
05:44 9.9 °C 8.2 °C 1016.1 hPa Calm     89% 0 mm 5 W/m2
05:49 9.8 °C 8.2 °C 1016.1 hPa Calm     89% 0 mm 9 W/m2
05:54 9.8 °C 8.1 °C 1016.1 hPa Calm     89% 0 mm 11 W/m2
05:59 9.8 °C 8.2 °C 1016.1 hPa Calm     89.8% 0 mm 12 W/m2
06:04 9.7 °C 8 °C 1016.1 hPa Calm     89.2% 0 mm 16 W/m2
06:09 9.7 °C 8.1 °C 1016.5 hPa Calm     90% 0 mm 21 W/m2
06:14 9.7 °C 8.1 °C 1016.5 hPa Calm     90% 0 mm 25 W/m2
06:19 9.7 °C 8.2 °C 1016.5 hPa Calm     90% 0 mm 33 W/m2
06:24 9.8 °C 8.3 °C 1016.5 hPa Calm     90% 0 mm 40 W/m2
06:29 9.9 °C 8.3 °C 1016.5 hPa Calm     90% 0 mm 39 W/m2
06:34 10.1 °C 8.5 °C 1016.5 hPa Calm     90% 0 mm 42 W/m2
06:39 10.2 °C 8.6 °C 1016.5 hPa Calm     90% 0 mm 39 W/m2
06:44 10.2 °C 8.7 °C 1016.5 hPa Calm     90% 0 mm 40 W/m2
06:49 10.3 °C 8.7 °C 1016.5 hPa Calm     90% 0 mm 40 W/m2
06:54 10.4 °C 8.8 °C 1016.5 hPa Calm     90% 0 mm 40 W/m2
06:59 10.6 °C 9.1 °C 1016.5 hPa Calm     90.8% 0 mm 53 W/m2
07:04 10.7 °C 9.2 °C 1016.5 hPa Calm     90.8% 0 mm 53 W/m2
07:09 10.7 °C 9.3 °C 1016.5 hPa Calm     90.8% 0 mm 56 W/m2
07:14 10.8 °C 9.3 °C 1016.5 hPa Calm     90.2% 0 mm 67 W/m2
07:19 10.9 °C 9.5 °C 1016.5 hPa Calm     91% 0 mm 79 W/m2
07:24 11 °C 9.6 °C 1016.5 hPa Calm     91% 0 mm 91 W/m2
07:29 11.2 °C 9.6 °C 1016.5 hPa SW 1 km/h 4.8 km/h 90.2% 0 mm 107 W/m2
07:34 11.3 °C 9.9 °C 1016.5 hPa SW 1 km/h 6.4 km/h 90.8% 0 mm 125 W/m2
07:39 11.5 °C 9.9 °C 1016.5 hPa SW 2.7 km/h 4.8 km/h 90% 0 mm 137 W/m2
07:44 11.7 °C 10.1 °C 1016.8 hPa SW 2.3 km/h 6.4 km/h 90% 0 mm 155 W/m2
07:49 11.9 °C 10.3 °C 1016.5 hPa SW 3.4 km/h 4.8 km/h 90% 0 mm 171 W/m2
07:54 12.2 °C 10.6 °C 1016.8 hPa WSW 4.2 km/h 8 km/h 90% 0 mm 188 W/m2
07:59 12.3 °C 10.4 °C 1016.5 hPa WSW 3.9 km/h 6.4 km/h 89% 0 mm 202 W/m2
08:04 12.6 °C 10.7 °C 1016.8 hPa WSW 1.9 km/h 6.4 km/h 88.6% 0 mm 218 W/m2
08:09 12.8 °C 10.9 °C 1016.8 hPa WSW 2.7 km/h 6.4 km/h 87.6% 0 mm 234 W/m2
08:14 13.1 °C 10.9 °C 1016.8 hPa WSW 2.7 km/h 6.4 km/h 86.5% 0 mm 248 W/m2
08:19 13.4 °C 11.1 °C 1016.8 hPa WSW 2.1 km/h 4.8 km/h 85.8% 0 mm 267 W/m2
08:24 13.8 °C 11.2 °C 1016.8 hPa West 1.6 km/h 6.4 km/h 84.6% 0 mm 283 W/m2
08:29 14.1 °C 11.3 °C 1016.8 hPa West 2.1 km/h 6.4 km/h 83.4% 0 mm 299 W/m2
08:34 14.2 °C 11.3 °C 1016.8 hPa West 6 km/h 9.7 km/h 82.2% 0 mm 316 W/m2
08:39 14.2 °C 11.1 °C 1016.8 hPa West 6.6 km/h 12.9 km/h 81.4% 0 mm 330 W/m2
08:44 14.4 °C 11.3 °C 1016.8 hPa West 3.4 km/h 8 km/h 81.6% 0 mm 345 W/m2
08:47 14.6 °C 11.3 °C 1016.8 hPa West 6 km/h 8 km/h 80.3% 0 mm 355 W/m2
08:54 14.9 °C 11.3 °C 1016.8 hPa West 5.1 km/h 8 km/h 79.2% 0 mm 374 W/m2
08:59 15.2 °C 11.1 °C 1016.8 hPa NW 5.3 km/h 12.9 km/h 76.2% 0 mm 390 W/m2
09:04 15.2 °C 10.6 °C 1016.8 hPa NW 7.2 km/h 14.5 km/h 73.8% 0 mm 408 W/m2
09:09 15.3 °C 10.6 °C 1016.8 hPa North 7.1 km/h 12.9 km/h 73.4% 0 mm 422 W/m2
09:14 15.4 °C 10.7 °C 1016.8 hPa NNW 5.1 km/h 14.5 km/h 73% 0 mm 432 W/m2
09:19 15.6 °C 10.8 °C 1016.8 hPa NW 6 km/h 12.9 km/h 73% 0 mm 445 W/m2
09:24 15.7 °C 10.8 °C 1016.8 hPa NW 6 km/h 11.3 km/h 73% 0 mm 455 W/m2
09:29 15.8 °C 11 °C 1016.8 hPa NW 7.4 km/h 14.5 km/h 73.2% 0 mm 468 W/m2
09:34 15.9 °C 11.1 °C 1016.8 hPa WNW 5.1 km/h 16.1 km/h 73% 0 mm 480 W/m2
09:39 16.2 °C 11 °C 1016.8 hPa NNW 7.2 km/h 12.9 km/h 71.6% 0 mm 494 W/m2
09:44 16.2 °C 10.8 °C 1016.8 hPa NNW 9.7 km/h 14.5 km/h 70.6% 0 mm 508 W/m2
09:49 16.3 °C 10.7 °C 1016.8 hPa NNE 6.6 km/h 16.1 km/h 69.4% 0 mm 552 W/m2
09:54 16.8 °C 11.1 °C 1016.8 hPa NW 2.9 km/h 16.1 km/h 68.8% 0 mm 587 W/m2
09:59 16.7 °C 10.5 °C 1016.8 hPa NNW 7.4 km/h 14.5 km/h 67.2% 0 mm 601 W/m2
10:03 16.8 °C 10.6 °C 1016.8 hPa NW 4.8 km/h 17.7 km/h 66.8% 0 mm 613 W/m2
10:09 16.8 °C 10.3 °C 1016.8 hPa NW 9 km/h 17.7 km/h 66% 0 mm 654 W/m2
10:14 16.8 °C 11.2 °C 1016.8 hPa West 5 km/h 14.5 km/h 69.2% 0 mm 749 W/m2
10:19 17.1 °C 11.6 °C 1016.8 hPa NW 4.5 km/h 16.1 km/h 69.8% 0 mm 731 W/m2
10:24 16.8 °C 11.2 °C 1016.8 hPa NW 8.7 km/h 19.3 km/h 69.8% 0 mm 835 W/m2
10:29 17.4 °C 11.7 °C 1016.8 hPa NW 6.3 km/h 16.1 km/h 69.2% 0 mm 835 W/m2
10:34 17.2 °C 11.4 °C 1016.8 hPa WNW 8.7 km/h 16.1 km/h 68.6% 0 mm 835 W/m2
10:39 17.1 °C 11.4 °C 1016.8 hPa WNW 2.7 km/h 11.3 km/h 69% 0 mm 237 W/m2
10:44 17 °C 11.3 °C 1016.8 hPa NW 6 km/h 12.9 km/h 69.2% 0 mm 341 W/m2
10:49 16.9 °C 11.2 °C 1016.8 hPa WNW 7.1 km/h 14.5 km/h 68.6% 0 mm 341 W/m2
10:54 17.1 °C 11.3 °C 1016.8 hPa WNW 6.6 km/h 12.9 km/h 68.8% 0 mm 301 W/m2
10:59 17.1 °C 11.3 °C 1016.8 hPa WNW 6.8 km/h 11.3 km/h 68.8% 0 mm 301 W/m2
11:04 17.3 °C 11.6 °C 1016.8 hPa NW 5.3 km/h 16.1 km/h 68.6% 0 mm 824 W/m2
11:09 17.7 °C 11.6 °C 1016.8 hPa NW 8.7 km/h 16.1 km/h 67.6% 0 mm 824 W/m2
11:14 17.8 °C 11.6 °C 1016.8 hPa NW 6.3 km/h 17.7 km/h 66.8% 0 mm 905 W/m2
11:19 17.7 °C 11.6 °C 1016.8 hPa NW 9.3 km/h 17.7 km/h 67.2% 0 mm 905 W/m2
11:24 17.8 °C 11.6 °C 1016.8 hPa WNW 6.6 km/h 14.5 km/h 66.8% 0 mm 898 W/m2
11:29 17.5 °C 11.3 °C 1016.8 hPa WNW 6.6 km/h 14.5 km/h 67.2% 0 mm 158 W/m2
11:34 17.3 °C 11.4 °C 1016.8 hPa WNW 6 km/h 14.5 km/h 68.4% 0 mm 782 W/m2
11:39 17.9 °C 11.8 °C 1016.8 hPa WNW 6 km/h 12.9 km/h 67% 0 mm 795 W/m2
11:44 18.2 °C 11.5 °C 1016.8 hPa West 11.3 km/h 22.5 km/h 65% 0 mm 872 W/m2
11:49 18.1 °C 11.3 °C 1016.8 hPa WNW 9 km/h 22.5 km/h 64.6% 0 mm 872 W/m2
11:54 18.7 °C 11.3 °C 1016.8 hPa West 10.5 km/h 19.3 km/h 62% 0 mm 888 W/m2
11:58 18.9 °C 11.4 °C 1016.8 hPa WNW 5.1 km/h 16.1 km/h 62% 0 mm 926 W/m2
12:04 19 °C 11.7 °C 1016.8 hPa NW 9.5 km/h 19.3 km/h 62.4% 0 mm 923 W/m2
12:09 18.4 °C 11.1 °C 1016.8 hPa NW 8.4 km/h 16.1 km/h 62% 0 mm 953 W/m2
12:14 18.3 °C 10.8 °C 1016.8 hPa WNW 7.1 km/h 16.1 km/h 61.8% 0 mm 962 W/m2
12:19 18.2 °C 10.6 °C 1016.8 hPa NW 10.6 km/h 19.3 km/h 60.8% 0 mm 962 W/m2
12:24 18.7 °C 11.2 °C 1016.8 hPa WNW 8.5 km/h 14.5 km/h 61.6% 0 mm 998 W/m2
12:29 18.8 °C 11.3 °C 1016.8 hPa NW 8.7 km/h 19.3 km/h 61.6% 0 mm 352 W/m2
12:34 18.2 °C 10.9 °C 1016.8 hPa NW 9 km/h 16.1 km/h 62.4% 0 mm 281 W/m2
12:39 18.3 °C 10.7 °C 1016.8 hPa NW 7.2 km/h 17.7 km/h 61.4% 0 mm 318 W/m2
12:44 18.6 °C 10.4 °C 1016.8 hPa NNW 7.9 km/h 14.5 km/h 59.2% 0 mm 1083 W/m2
12:49 18.8 °C 10.1 °C 1016.8 hPa WNW 6.3 km/h 16.1 km/h 57.2% 0 mm 1083 W/m2
12:54 18.6 °C 10.4 °C 1016.8 hPa WNW 9.7 km/h 17.7 km/h 59.3% 0 mm 315 W/m2
12:59 18.3 °C 10.2 °C 1016.8 hPa WNW 8.4 km/h 17.7 km/h 59.6% 0 mm 371 W/m2
13:04 18.3 °C 10.3 °C 1016.8 hPa NW 9.7 km/h 17.7 km/h 59.6% 0 mm 371 W/m2
13:09 18.5 °C 10.8 °C 1016.8 hPa WNW 5.3 km/h 17.7 km/h 60.6% 0 mm 371 W/m2
13:14 19.3 °C 10.9 °C 1016.8 hPa NNW 5.3 km/h 12.9 km/h 58.2% 0 mm 371 W/m2
13:19 19.6 °C 10.5 °C 1016.8 hPa West 7.1 km/h 14.5 km/h 55.6% 0 mm 796 W/m2
13:24 19.5 °C 10.7 °C 1016.8 hPa NW 9.5 km/h 24.1 km/h 56.6% 0 mm 1009 W/m2
13:28 19.2 °C 10.5 °C 1016.8 hPa NNW 6.4 km/h 14.5 km/h 57% 0 mm 1009 W/m2
13:34 18.9 °C 10.7 °C 1016.5 hPa NNW 7.2 km/h 11.3 km/h 58.8% 0 mm 345 W/m2
13:39 18.7 °C 10.5 °C 1016.5 hPa NW 5.3 km/h 14.5 km/h 59% 0 mm 432 W/m2
13:44 18.9 °C 10.7 °C 1016.5 hPa NW 7.4 km/h 19.3 km/h 59% 0 mm 468 W/m2
13:49 19 °C 11 °C 1016.5 hPa NW 8.7 km/h 19.3 km/h 59.6% 0 mm 388 W/m2
13:54 18.7 °C 10.7 °C 1016.5 hPa NNW 11.7 km/h 22.5 km/h 59.6% 0 mm 320 W/m2
13:59 18.5 °C 10.6 °C 1016.5 hPa NW 6.6 km/h 16.1 km/h 60% 0 mm 334 W/m2
14:04 18.8 °C 10.7 °C 1016.5 hPa NNW 8.7 km/h 19.3 km/h 59.6% 0 mm 443 W/m2
14:09 18.6 °C 10.4 °C 1016.5 hPa NNW 10.9 km/h 19.3 km/h 59% 0 mm 443 W/m2
14:14 18.2 °C 9.9 °C 1016.5 hPa NNW 8 km/h 22.5 km/h 58.4% 0 mm 162 W/m2
14:19 17.8 °C 9.8 °C 1016.5 hPa NW 9.7 km/h 22.5 km/h 59.4% 0 mm 160 W/m2
14:24 17.9 °C 10 °C 1016.5 hPa NNW 3.4 km/h 11.3 km/h 60% 0 mm 220 W/m2
14:29 18.2 °C 9.9 °C 1016.5 hPa NW 5.1 km/h 11.3 km/h 58.5% 0 mm 230 W/m2
14:34 18.1 °C 10 °C 1016.5 hPa NNW 7.6 km/h 14.5 km/h 59% 0 mm 209 W/m2
14:39 18.1 °C 9.6 °C 1016.5 hPa WNW 5.8 km/h 14.5 km/h 57.6% 0 mm 158 W/m2
14:44 18.1 °C 9.5 °C 1016.5 hPa NW 7.7 km/h 20.9 km/h 57.4% 0 mm 179 W/m2
14:49 18.1 °C 9.4 °C 1016.5 hPa WNW 7.2 km/h 16.1 km/h 57.2% 0 mm 223 W/m2
14:54 18 °C 10.1 °C 1016.5 hPa NW 8.9 km/h 14.5 km/h 59.6% 0 mm 315 W/m2
14:59 18.2 °C 10.8 °C 1016.5 hPa NW 4.3 km/h 12.9 km/h 61.8% 0 mm 309 W/m2
15:04 18.3 °C 11.1 °C 1016.5 hPa WNW 7.9 km/h 12.9 km/h 62.8% 0 mm 288 W/m2
15:09 18.3 °C 11.4 °C 1016.5 hPa West 8.4 km/h 22.5 km/h 64% 0 mm 218 W/m2
15:14 18.2 °C 11.4 °C 1016.5 hPa WNW 10.1 km/h 19.3 km/h 64.5% 0 mm 195 W/m2
15:19 18.2 °C 10.7 °C 1016.5 hPa West 8.4 km/h 17.7 km/h 61.8% 0 mm 190 W/m2
15:24 18.1 °C 10.3 °C 1016.5 hPa West 9 km/h 22.5 km/h 60.4% 0 mm 213 W/m2
15:29 18.2 °C 10 °C 1016.5 hPa NW 11.1 km/h 24.1 km/h 58.8% 0 mm 246 W/m2
15:34 18.1 °C 9.7 °C 1016.5 hPa WNW 11.4 km/h 17.7 km/h 58% 0 mm 257 W/m2
15:39 18.2 °C 9.8 °C 1016.5 hPa NW 10.9 km/h 16.1 km/h 58% 0 mm 239 W/m2
15:44 18.2 °C 10.1 °C 1016.5 hPa WNW 6.1 km/h 16.1 km/h 58.8% 0 mm 218 W/m2
15:49 18.2 °C 10.1 °C 1016.5 hPa NW 6.3 km/h 12.9 km/h 59% 0 mm 197 W/m2
15:54 18.3 °C 10.6 °C 1016.5 hPa West 6.8 km/h 12.9 km/h 61% 0 mm 172 W/m2
15:59 18.2 °C 10.7 °C 1016.5 hPa West 8.4 km/h 14.5 km/h 61.8% 0 mm 171 W/m2
16:04 18.1 °C 10.7 °C 1016.5 hPa WNW 10.9 km/h 17.7 km/h 62% 0 mm 160 W/m2
16:08 18 °C 11.2 °C 1016.5 hPa WNW 8.4 km/h 19.3 km/h 64.5% 0 mm 139 W/m2
16:14 17.8 °C 11.5 °C 1016.5 hPa NW 9 km/h 19.3 km/h 66.2% 0 mm 141 W/m2
16:19 17.8 °C 11.6 °C 1016.5 hPa WNW 9.8 km/h 17.7 km/h 67% 0 mm 163 W/m2
16:24 17.7 °C 11.5 °C 1016.5 hPa WNW 7.1 km/h 16.1 km/h 67% 0 mm 174 W/m2
16:29 17.8 °C 11.6 °C 1016.5 hPa WNW 9.3 km/h 17.7 km/h 67% 0 mm 193 W/m2
16:34 17.8 °C 11.5 °C 1016.5 hPa West 6.1 km/h 14.5 km/h 66.4% 0 mm 206 W/m2
16:39 18 °C 11.7 °C 1016.5 hPa WNW 4.5 km/h 11.3 km/h 66.2% 0 mm 199 W/m2
16:44 18.1 °C 11.5 °C 1016.5 hPa NW 5.5 km/h 17.7 km/h 65.6% 0 mm 332 W/m2
16:49 18.3 °C 11.2 °C 1016.5 hPa NW 9.7 km/h 19.3 km/h 63.4% 0 mm 680 W/m2
16:54 18.7 °C 11 °C 1016.5 hPa NW 10.1 km/h 19.3 km/h 61% 0 mm 645 W/m2
16:59 19 °C 11.3 °C 1016.5 hPa NNW 12.2 km/h 19.3 km/h 60.8% 0 mm 619 W/m2
17:04 19.1 °C 11.2 °C 1016.5 hPa NW 12.6 km/h 20.9 km/h 60.2% 0 mm 566 W/m2
17:09 18.9 °C 11 °C 1016.5 hPa WNW 10 km/h 17.7 km/h 60% 0 mm 547 W/m2
17:14 18.7 °C 10.8 °C 1016.1 hPa NW 8 km/h 12.9 km/h 60% 0 mm 97 W/m2
17:19 18.5 °C 10.6 °C 1016.5 hPa WNW 6 km/h 12.9 km/h 60.2% 0 mm 512 W/m2
17:24 18.7 °C 11.1 °C 1016.5 hPa WNW 8.5 km/h 14.5 km/h 61% 0 mm 520 W/m2
17:29 18.9 °C 11.1 °C 1016.1 hPa NW 7.6 km/h 17.7 km/h 60.2% 0 mm 564 W/m2
17:34 19.2 °C 11.1 °C 1016.1 hPa WNW 11.3 km/h 19.3 km/h 59.6% 0 mm 578 W/m2
17:39 19.2 °C 11.3 °C 1016.5 hPa WNW 11.3 km/h 20.9 km/h 60.6% 0 mm 531 W/m2
17:44 18.9 °C 11.2 °C 1016.1 hPa WNW 10 km/h 19.3 km/h 60.6% 0 mm 517 W/m2
17:49 19.3 °C 11.2 °C 1016.1 hPa WNW 8.7 km/h 20.9 km/h 59.8% 0 mm 483 W/m2
17:54 19.4 °C 11.2 °C 1016.1 hPa WNW 12.1 km/h 20.9 km/h 59% 0 mm 457 W/m2
17:59 19.1 °C 11.2 °C 1016.5 hPa WNW 8.5 km/h 17.7 km/h 60% 0 mm 436 W/m2
18:04 18.6 °C 11.3 °C 1016.5 hPa WNW 7.2 km/h 14.5 km/h 62.8% 0 mm 91 W/m2
18:09 18.7 °C 11.3 °C 1016.1 hPa NW 9.3 km/h 17.7 km/h 62.4% 0 mm 436 W/m2
18:14 19.1 °C 11.2 °C 1016.1 hPa WNW 11.3 km/h 19.3 km/h 60.2% 0 mm 390 W/m2
18:19 19.2 °C 11 °C 1016.1 hPa WNW 10.3 km/h 20.9 km/h 59.2% 0 mm 376 W/m2
18:24 19.2 °C 11.2 °C 1016.5 hPa West 10.9 km/h 20.9 km/h 59.8% 0 mm 350 W/m2
18:29 19.1 °C 11.2 °C 1016.5 hPa WNW 12.6 km/h 24.1 km/h 60.4% 0 mm 334 W/m2
18:34 18.9 °C 11 °C 1016.1 hPa WNW 11.6 km/h 19.3 km/h 60% 0 mm 322 W/m2
18:39 18.8 °C 10.8 °C 1016.1 hPa WNW 12.2 km/h 20.9 km/h 59.6% 0 mm 306 W/m2
18:44 18.9 °C 11.2 °C 1016.5 hPa WNW 9.3 km/h 19.3 km/h 61% 0 mm 297 W/m2
18:49 18.8 °C 11.6 °C 1016.1 hPa WNW 13.2 km/h 24.1 km/h 62.5% 0 mm 292 W/m2
18:54 18.7 °C 12.1 °C 1016.5 hPa WNW 9.3 km/h 22.5 km/h 65.4% 0 mm 274 W/m2
18:59 18.4 °C 12.2 °C 1016.5 hPa West 11.9 km/h 24.1 km/h 67% 0 mm 260 W/m2
19:04 18.3 °C 12.2 °C 1016.5 hPa WNW 13.8 km/h 22.5 km/h 67.2% 0 mm 243 W/m2
19:09 18.3 °C 11.8 °C 1016.5 hPa West 12.9 km/h 24.1 km/h 66% 0 mm 221 W/m2
19:14 18.1 °C 11.8 °C 1016.5 hPa West 10.8 km/h 19.3 km/h 66.6% 0 mm 197 W/m2
19:19 18.2 °C 11.9 °C 1016.5 hPa West 10.3 km/h 17.7 km/h 66.8% 0 mm 186 W/m2
19:24 18.2 °C 12.1 °C 1016.5 hPa West 7.6 km/h 16.1 km/h 67% 0 mm 160 W/m2
19:29 18.2 °C 11.8 °C 1016.5 hPa West 11.9 km/h 19.3 km/h 66.4% 0 mm 156 W/m2
19:34 17.9 °C 11.7 °C 1016.5 hPa WNW 10.1 km/h 19.3 km/h 67% 0 mm 141 W/m2
19:39 17.9 °C 11.7 °C 1016.5 hPa West 6.9 km/h 19.3 km/h 67% 0 mm 127 W/m2
19:43 17.9 °C 11.8 °C 1016.5 hPa West 10.9 km/h 19.3 km/h 67.3% 0 mm 113 W/m2
19:49 17.9 °C 11.5 °C 1016.5 hPa WNW 6.8 km/h 16.1 km/h 66% 0 mm 100 W/m2
19:54 17.9 °C 11.4 °C 1016.8 hPa West 5.5 km/h 12.9 km/h 65.4% 0 mm 86 W/m2
19:59 17.9 °C 11.3 °C 1016.8 hPa WNW 5.5 km/h 12.9 km/h 65.2% 0 mm 72 W/m2
20:04 17.7 °C 11.3 °C 1016.8 hPa West 7.2 km/h 14.5 km/h 66% 0 mm 56 W/m2
20:09 17.4 °C 11.2 °C 1016.8 hPa WNW 5.3 km/h 14.5 km/h 66.6% 0 mm 33 W/m2
20:13 17.3 °C 11.2 °C 1016.8 hPa WNW 5.1 km/h 14.5 km/h 67.5% 0 mm 23 W/m2
20:19 17 °C 11.2 °C 1016.8 hPa WNW 6.1 km/h 8 km/h 68.4% 0 mm 16 W/m2
20:24 16.8 °C 11.2 °C 1016.8 hPa WNW 3.9 km/h 9.7 km/h 69% 0 mm 14 W/m2
20:29 16.7 °C 11.1 °C 1016.8 hPa WNW 3.4 km/h 9.7 km/h 69.6% 0 mm 12 W/m2
20:34 16.6 °C 11.1 °C 1016.8 hPa WNW 3.2 km/h 8 km/h 70% 0 mm 11 W/m2
20:39 16.3 °C 10.8 °C 1016.8 hPa WNW 4.7 km/h 9.7 km/h 70% 0 mm 11 W/m2
20:44 16.2 °C 10.7 °C 1016.8 hPa WNW 5.1 km/h 9.7 km/h 70% 0 mm 7 W/m2
20:49 16.1 °C 10.6 °C 1016.8 hPa WNW 3.9 km/h 8 km/h 70.2% 0 mm 5 W/m2
20:54 15.8 °C 10.6 °C 1016.8 hPa WNW 3.2 km/h 6.4 km/h 71% 0 mm 0 W/m2
20:59 15.7 °C 10.2 °C 1017.2 hPa WNW 1 km/h 6.4 km/h 70% 0 mm 0 W/m2
21:04 15.6 °C 9.6 °C 1017.2 hPa WNW 3.5 km/h 6.4 km/h 67.4% 0 mm 0 W/m2
21:09 15.6 °C 9.4 °C 1017.2 hPa Calm   3.2 km/h 66.8% 0 mm 0 W/m2
21:14 15.4 °C 9.3 °C 1017.5 hPa Calm     67% 0 mm 0 W/m2
21:19 15.3 °C 9.3 °C 1017.5 hPa Calm     67.8% 0 mm 0 W/m2
21:24 15.2 °C 9.6 °C 1017.5 hPa Calm     69% 0 mm 0 W/m2
21:29 15 °C 9.4 °C 1017.5 hPa WNW 0.3 km/h 3.2 km/h 69% 0 mm 0 W/m2
21:34 14.8 °C 9.3 °C 1017.5 hPa WNW 0.3 km/h 3.2 km/h 69.8% 0 mm 0 W/m2
21:39 14.6 °C 9.2 °C 1017.5 hPa WNW 1.9 km/h 4.8 km/h 69.8% 0 mm 0 W/m2
21:44 14.4 °C 9 °C 1017.5 hPa Calm   3.2 km/h 70% 0 mm 0 W/m2
21:49 14.3 °C 8.9 °C 1017.5 hPa Calm     70% 0 mm 0 W/m2
21:54 14.2 °C 8.9 °C 1017.5 hPa Calm     70.4% 0 mm 0 W/m2
21:59 14.1 °C 8.9 °C 1017.5 hPa Calm     71% 0 mm 0 W/m2
22:04 13.9 °C 8.7 °C 1017.8 hPa Calm     71% 0 mm 0 W/m2
22:09 13.8 °C 8.7 °C 1017.8 hPa Calm     71.6% 0 mm 0 W/m2
22:14 13.7 °C 8.7 °C 1017.8 hPa Calm     72% 0 mm 0 W/m2
22:19 13.6 °C 8.6 °C 1017.8 hPa Calm     72% 0 mm 0 W/m2
22:24 13.4 °C 8.7 °C 1017.8 hPa Calm     72.6% 0 mm 0 W/m2
22:29 13.3 °C 8.6 °C 1017.8 hPa Calm     73% 0 mm 0 W/m2
22:34 13.2 °C 8.4 °C 1017.8 hPa Calm     73% 0 mm 0 W/m2
22:39 13.1 °C 8.3 °C 1017.8 hPa Calm     73% 0 mm 0 W/m2
22:44 12.9 °C 8.2 °C 1017.8 hPa Calm     73% 0 mm 0 W/m2
22:49 12.9 °C 8.2 °C 1017.8 hPa Calm     73% 0 mm 0 W/m2
22:54 12.8 °C 8.2 °C 1017.8 hPa Calm     73.6% 0 mm 0 W/m2
22:59 12.8 °C 8.3 °C 1017.8 hPa WNW 0.3 km/h 3.2 km/h 74% 0 mm 0 W/m2
23:04 12.7 °C 8.2 °C 1018.2 hPa WNW 0.8 km/h 4.8 km/h 74% 0 mm 0 W/m2
23:09 12.6 °C 8.1 °C 1018.2 hPa WNW 0.6 km/h 4.8 km/h 74% 0 mm 0 W/m2
23:14 12.6 °C 8.1 °C 1018.2 hPa Calm     74% 0 mm 0 W/m2
23:19 12.5 °C 8 °C 1018.2 hPa Calm     74% 0 mm 0 W/m2
23:24 12.4 °C 7.9 °C 1018.2 hPa Calm     74% 0 mm 0 W/m2
23:29 12.4 °C 8.1 °C 1018.2 hPa Calm     75% 0 mm 0 W/m2
23:34 12.4 °C 8.1 °C 1018.2 hPa Calm     75% 0 mm 0 W/m2
23:39 12.3 °C 8 °C 1018.2 hPa Calm     75% 0 mm 0 W/m2
23:44 12.3 °C 8 °C 1018.2 hPa Calm     75% 0 mm 0 W/m2
23:49 12.2 °C 7.9 °C 1018.2 hPa Calm     75% 0 mm 0 W/m2
23:54 12.2 °C 7.9 °C 1018.2 hPa Calm     75% 0 mm 0 W/m2
23:59 12.1 °C 7.8 °C 1018.2 hPa Calm     75% 0 mm 0 W/m2
Bath Spa Weather
Compliments of Weather Underground - 2 mb